Watertown, New York
Current Conditions -  °F | °C
As of 3:56 AM on Sunday 26 Oct 2014 (Local Time) from KART Reporting Station
Overcast Overcast  
Wind Chill: 52°   Ceiling: 7000
Heat Index: 52°   Visibility: 10mi
Dew Point: 36°   Wind: 17mph
Humidity: 54%   Direction: 270°W
Pressure: 29.52"   Gusts: 25mph
Location:  43.98°N, 75.91°W
Report Text: KART 260756Z AUTO 27015G22KT 10SM OVC070 11/02 A2952 RMK AO2 SLP995 T01110022
Loading
Personal Weather Stations






























Interactive Weather Map New forecast layout! Learn more

10-Day Weather Forecast

Advertisements
Track Severe Weather on mobile